Time;durP1;ratioP1;P1;durP2;ratioP2;P2;SDS_P1;SDS_P2;PMS_P1;PMS_P2;Temp;Humidity;BMP_temperature;BMP_pressure;BME280_temperature;BME280_humidity;BME280_pressure;Samples;Min_cycle;Max_cycle;Signal;HPM_P1;HPM_P2
2022/11/20 00:00:39;;;;;;;34.75;17.35;;;;;;;;;;5087159;28;20389;-59
2022/11/20 00:03:04;;;;;;;41.58;18.15;;;;;;;;;;5085624;28;20081;-59
2022/11/20 00:05:31;;;;;;;35.35;18.35;;;;;;;;;;5083115;28;20036;-59
2022/11/20 00:07:57;;;;;;;34.45;17.08;;;;;;;;;;5078247;28;20046;-59
2022/11/20 00:10:22;;;;;;;33.58;18.77;;;;;;;;;;5074857;28;20013;-59
2022/11/20 00:12:47;;;;;;;41.78;20.23;;;;;;;;;;5094364;28;20527;-58
2022/11/20 00:15:12;;;;;;;61.13;27.38;;;;;;;;;;5083964;28;20835;-58
2022/11/20 00:17:38;;;;;;;52.05;23.08;;;;;;;;;;5081979;28;20502;-58
2022/11/20 00:20:03;;;;;;;81.50;31.40;;;;;;;;;;5081214;28;20032;-58
2022/11/20 00:22:28;;;;;;;43.53;19.95;;;;;;;;;;5090533;28;20137;-58
2022/11/20 00:24:53;;;;;;;54.53;22.50;;;;;;;;;;5091034;28;20345;-58
2022/11/20 00:27:19;;;;;;;43.38;20.40;;;;;;;;;;5077271;28;20032;-58
2022/11/20 00:29:44;;;;;;;35.35;18.20;;;;;;;;;;5089806;28;20344;-58
2022/11/20 00:32:09;;;;;;;35.63;18.63;;;;;;;;;;5084423;28;20528;-58
2022/11/20 00:34:34;;;;;;;40.58;19.42;;;;;;;;;;5080973;28;20021;-58
2022/11/20 00:37:00;;;;;;;46.40;21.88;;;;;;;;;;5078208;28;20034;-58
2022/11/20 00:39:25;;;;;;;40.70;20.20;;;;;;;;;;5082419;28;20052;-58
2022/11/20 00:41:50;;;;;;;40.38;19.33;;;;;;;;;;5082056;28;20473;-57
2022/11/20 00:44:15;;;;;;;38.58;18.92;;;;;;;;;;5089876;28;20024;-58
2022/11/20 00:46:41;;;;;;;39.60;19.65;;;;;;;;;;5082021;28;20020;-58
2022/11/20 00:49:06;;;;;;;44.65;20.63;;;;;;;;;;5090576;28;20342;-58
2022/11/20 00:51:31;;;;;;;39.78;18.52;;;;;;;;;;5081985;28;20016;-58
2022/11/20 00:53:57;;;;;;;33.03;17.42;;;;;;;;;;5099254;28;20130;-57
2022/11/20 00:56:22;;;;;;;44.38;20.30;;;;;;;;;;5072767;28;20032;-57
2022/11/20 00:58:47;;;;;;;59.78;25.10;;;;;;;;;;5075010;28;20055;-58
2022/11/20 01:01:17;;;;;;;37.65;18.70;;;;;;;;;;5072817;28;20027;-58
2022/11/20 01:03:43;;;;;;;36.88;18.63;;;;;;;;;;5082440;28;20040;-58
2022/11/20 01:06:12;;;;;;;36.50;18.02;;;;;;;;;;5075256;28;20036;-58
2022/11/20 01:08:37;;;;;;;37.92;18.73;;;;;;;;;;5080298;28;20547;-58
2022/11/20 01:11:03;;;;;;;38.42;18.73;;;;;;;;;;5079841;28;20077;-57
2022/11/20 01:13:38;;;;;;;40.53;19.90;;;;;;;;;;5084264;28;20027;-58
2022/11/20 01:16:07;;;;;;;37.13;19.60;;;;;;;;;;5083805;28;20568;-57
2022/11/20 01:18:32;;;;;;;38.63;19.48;;;;;;;;;;5089444;28;20301;-58
2022/11/20 01:21:04;;;;;;;40.38;19.75;;;;;;;;;;5093727;28;20011;-58
2022/11/20 01:23:30;;;;;;;40.35;19.38;;;;;;;;;;5089888;28;20496;-58
2022/11/20 01:25:55;;;;;;;37.22;18.45;;;;;;;;;;5082339;28;20015;-58
2022/11/20 01:28:21;;;;;;;38.50;18.10;;;;;;;;;;5081902;28;20029;-58
2022/11/20 01:30:46;;;;;;;39.92;18.48;;;;;;;;;;5080081;28;20119;-58
2022/11/20 01:33:11;;;;;;;35.15;17.33;;;;;;;;;;5086081;28;20016;-58
2022/11/20 01:35:36;;;;;;;42.35;19.13;;;;;;;;;;5087256;28;20099;-58
2022/11/20 01:38:01;;;;;;;35.72;18.10;;;;;;;;;;5077890;28;20028;-58
2022/11/20 01:40:27;;;;;;;32.75;16.85;;;;;;;;;;5072822;28;20362;-58
2022/11/20 01:45:58;;;;;;;37.08;17.88;;;;;;;;;;5109159;27;20086;-57
2022/11/20 01:48:24;;;;;;;44.47;18.73;;;;;;;;;;5081205;28;20031;-58
2022/11/20 01:50:50;;;;;;;42.92;18.20;;;;;;;;;;5082481;28;20384;-58
2022/11/20 01:53:16;;;;;;;45.90;20.25;;;;;;;;;;5079156;28;20033;-57
2022/11/20 01:55:42;;;;;;;44.75;20.38;;;;;;;;;;5070435;28;20070;-58
2022/11/20 01:58:08;;;;;;;44.15;19.33;;;;;;;;;;5086611;28;20164;-58
2022/11/20 02:00:33;;;;;;;42.92;19.35;;;;;;;;;;5108973;27;20478;-58
2022/11/20 02:02:59;;;;;;;44.55;19.13;;;;;;;;;;5079001;28;20032;-58
2022/11/20 02:05:24;;;;;;;41.80;19.85;;;;;;;;;;5111720;27;20107;-58
2022/11/20 02:07:49;;;;;;;42.25;19.13;;;;;;;;;;5076046;28;20170;-58
2022/11/20 02:10:14;;;;;;;42.60;20.65;;;;;;;;;;5109367;27;20457;-58
2022/11/20 02:15:24;;;;;;;41.83;19.40;;;;;;;;;;5077897;28;20027;-58
2022/11/20 02:17:49;;;;;;;55.05;20.45;;;;;;;;;;5085654;28;20028;-58
2022/11/20 02:20:14;;;;;;;47.42;19.25;;;;;;;;;;5081329;28;20016;-57
2022/11/20 02:22:43;;;;;;;48.67;20.00;;;;;;;;;;5096193;28;20127;-57
2022/11/20 02:25:08;;;;;;;45.42;20.30;;;;;;;;;;5087146;28;20032;-57
2022/11/20 02:27:33;;;;;;;46.58;20.08;;;;;;;;;;5074854;28;20044;-58
2022/11/20 02:30:03;;;;;;;50.33;21.02;;;;;;;;;;5077876;28;20050;-57
2022/11/20 02:32:29;;;;;;;47.13;21.15;;;;;;;;;;5071399;28;20035;-58
2022/11/20 02:34:54;;;;;;;47.53;20.67;;;;;;;;;;5073684;28;20053;-57
2022/11/20 02:37:19;;;;;;;43.08;20.33;;;;;;;;;;5084918;28;20527;-58
2022/11/20 02:39:46;;;;;;;45.13;20.40;;;;;;;;;;5089269;28;20023;-58
2022/11/20 02:42:11;;;;;;;47.85;21.95;;;;;;;;;;5079269;28;20561;-58
2022/11/20 02:44:36;;;;;;;44.28;19.95;;;;;;;;;;5077355;28;20373;-58
2022/11/20 02:47:01;;;;;;;41.97;20.23;;;;;;;;;;5087354;28;20024;-58
2022/11/20 02:49:27;;;;;;;42.00;20.45;;;;;;;;;;5086113;28;20386;-58
2022/11/20 02:51:52;;;;;;;44.30;19.63;;;;;;;;;;5081046;28;20024;-58
2022/11/20 02:54:17;;;;;;;46.20;20.73;;;;;;;;;;5074819;28;20024;-58
2022/11/20 02:56:43;;;;;;;45.50;21.15;;;;;;;;;;5076018;28;20482;-58
2022/11/20 02:59:08;;;;;;;42.05;20.23;;;;;;;;;;5110487;27;20028;-58
2022/11/20 03:01:33;;;;;;;41.03;18.83;;;;;;;;;;5076234;28;20016;-58
2022/11/20 03:03:59;;;;;;;41.60;19.83;;;;;;;;;;5076590;28;20049;-58
2022/11/20 03:06:24;;;;;;;48.92;20.30;;;;;;;;;;5080172;28;20062;-58
2022/11/20 03:08:49;;;;;;;52.35;20.83;;;;;;;;;;5075008;28;20108;-58
2022/11/20 03:11:14;;;;;;;46.40;20.13;;;;;;;;;;5084479;28;20038;-57
2022/11/20 03:13:40;;;;;;;43.95;20.00;;;;;;;;;;5083133;28;20027;-58
2022/11/20 03:16:15;;;;;;;48.30;21.88;;;;;;;;;;5073399;28;20401;-57
2022/11/20 03:18:40;;;;;;;41.08;19.38;;;;;;;;;;5082100;28;20346;-58
2022/11/20 03:21:05;;;;;;;43.97;19.88;;;;;;;;;;5072606;28;20024;-58
2022/11/20 03:23:31;;;;;;;40.65;19.33;;;;;;;;;;5071769;28;20070;-58
2022/11/20 03:26:07;;;;;;;45.17;20.85;;;;;;;;;;5082887;28;20409;-58
2022/11/20 03:28:32;;;;;;;40.45;19.33;;;;;;;;;;5083055;28;20024;-58
2022/11/20 03:30:57;;;;;;;43.13;20.13;;;;;;;;;;5074229;28;20032;-58
2022/11/20 03:33:22;;;;;;;46.17;19.92;;;;;;;;;;5088605;28;20023;-58
2022/11/20 03:35:47;;;;;;;44.13;20.70;;;;;;;;;;5085664;28;20028;-58
2022/11/20 03:38:13;;;;;;;42.72;20.02;;;;;;;;;;5081853;28;20342;-58
2022/11/20 03:40:41;;;;;;;44.40;20.70;;;;;;;;;;5081599;28;20035;-57
2022/11/20 03:43:06;;;;;;;43.03;19.88;;;;;;;;;;5081005;28;20364;-57
2022/11/20 03:45:31;;;;;;;44.50;20.65;;;;;;;;;;5091667;28;20024;-58
2022/11/20 03:47:57;;;;;;;48.42;21.30;;;;;;;;;;5082510;28;20114;-58
2022/11/20 03:50:22;;;;;;;46.03;21.38;;;;;;;;;;5086783;28;20678;-58
2022/11/20 03:52:47;;;;;;;46.33;20.00;;;;;;;;;;5089670;28;20031;-58
2022/11/20 03:55:12;;;;;;;46.08;20.85;;;;;;;;;;5093193;28;20027;-58
2022/11/20 03:57:37;;;;;;;41.10;20.27;;;;;;;;;;5089586;28;20032;-57
2022/11/20 04:00:03;;;;;;;37.80;18.52;;;;;;;;;;5087089;28;20023;-58
2022/11/20 04:02:29;;;;;;;41.03;20.10;;;;;;;;;;5089952;28;20063;-58
2022/11/20 04:04:54;;;;;;;39.55;19.67;;;;;;;;;;5084287;28;20107;-58
2022/11/20 04:07:19;;;;;;;44.83;19.30;;;;;;;;;;5090844;28;20084;-57
2022/11/20 04:09:44;;;;;;;46.05;21.10;;;;;;;;;;5087196;28;20654;-58
2022/11/20 04:12:10;;;;;;;41.95;20.13;;;;;;;;;;5077225;28;20399;-58
2022/11/20 04:14:35;;;;;;;41.67;19.95;;;;;;;;;;5088937;28;20032;-58
2022/11/20 04:17:01;;;;;;;50.38;21.90;;;;;;;;;;5086209;28;20161;-58
2022/11/20 04:19:26;;;;;;;50.42;21.60;;;;;;;;;;5078733;28;20046;-58
2022/11/20 04:21:51;;;;;;;48.25;20.95;;;;;;;;;;5077797;28;20028;-58
2022/11/20 04:24:16;;;;;;;58.58;21.98;;;;;;;;;;5085505;28;20058;-58
2022/11/20 04:26:41;;;;;;;52.80;21.98;;;;;;;;;;5084352;28;20094;-58
2022/11/20 04:29:09;;;;;;;47.22;18.17;;;;;;;;;;5080154;28;20028;-57
2022/11/20 04:31:34;;;;;;;54.60;20.58;;;;;;;;;;5090942;28;20028;-58
2022/11/20 04:34:00;;;;;;;51.15;22.17;;;;;;;;;;5080271;28;20036;-57
2022/11/20 04:36:26;;;;;;;53.10;22.27;;;;;;;;;;5083649;28;20025;-57
2022/11/20 04:38:51;;;;;;;51.70;22.33;;;;;;;;;;5086093;28;20034;-57
2022/11/20 04:41:17;;;;;;;46.15;21.00;;;;;;;;;;5082040;28;20025;-58
2022/11/20 04:43:45;;;;;;;43.78;19.20;;;;;;;;;;5103429;27;20085;-57
2022/11/20 04:46:11;;;;;;;50.78;22.02;;;;;;;;;;5079574;28;20020;-57
2022/11/20 04:48:36;;;;;;;49.58;21.35;;;;;;;;;;5088968;28;20043;-58
2022/11/20 04:51:04;;;;;;;49.05;20.38;;;;;;;;;;5083172;28;20031;-58
2022/11/20 04:53:29;;;;;;;52.97;21.60;;;;;;;;;;5091441;28;20060;-58
2022/11/20 04:56:01;;;;;;;51.58;21.63;;;;;;;;;;5089528;28;20059;-57
2022/11/20 04:58:27;;;;;;;53.65;21.48;;;;;;;;;;5078934;28;20028;-58
2022/11/20 05:00:52;;;;;;;50.50;20.77;;;;;;;;;;5086163;28;20020;-58
2022/11/20 05:03:17;;;;;;;51.25;21.10;;;;;;;;;;5085316;28;20070;-57
2022/11/20 05:05:43;;;;;;;46.65;20.48;;;;;;;;;;5074314;28;20019;-58
2022/11/20 05:08:08;;;;;;;55.33;22.23;;;;;;;;;;5083493;28;20035;-58
2022/11/20 05:10:33;;;;;;;53.83;23.25;;;;;;;;;;5081644;28;20112;-58
2022/11/20 05:12:58;;;;;;;57.90;22.65;;;;;;;;;;5084232;28;20032;-58
2022/11/20 05:15:24;;;;;;;56.83;22.58;;;;;;;;;;5082054;28;20024;-58
2022/11/20 05:17:49;;;;;;;52.38;21.30;;;;;;;;;;5087147;28;20074;-58
2022/11/20 05:20:15;;;;;;;56.67;25.02;;;;;;;;;;5081403;28;20024;-58
2022/11/20 05:22:40;;;;;;;51.88;21.42;;;;;;;;;;5083709;28;20032;-58
2022/11/20 05:25:05;;;;;;;51.40;21.42;;;;;;;;;;5086863;28;20021;-58
2022/11/20 05:27:30;;;;;;;51.42;22.00;;;;;;;;;;5083277;28;20055;-58
2022/11/20 05:29:55;;;;;;;55.97;23.13;;;;;;;;;;5094105;28;20069;-58
2022/11/20 05:32:21;;;;;;;58.17;23.52;;;;;;;;;;5075405;28;20028;-58
2022/11/20 05:34:46;;;;;;;57.83;22.80;;;;;;;;;;5081038;28;20009;-58
2022/11/20 05:37:11;;;;;;;53.00;22.08;;;;;;;;;;5080078;28;20023;-58
2022/11/20 05:39:36;;;;;;;55.67;22.55;;;;;;;;;;5079252;28;20034;-58
2022/11/20 05:44:45;;;;;;;54.35;21.73;;;;;;;;;;5077334;28;20043;-58
2022/11/20 05:47:11;;;;;;;54.05;20.63;;;;;;;;;;5086124;28;20012;-58
2022/11/20 05:49:36;;;;;;;55.17;22.42;;;;;;;;;;5091087;28;20031;-58
2022/11/20 05:52:01;;;;;;;52.08;21.13;;;;;;;;;;5070703;28;20020;-58
2022/11/20 05:54:26;;;;;;;59.40;22.65;;;;;;;;;;5085503;28;20105;-58
2022/11/20 05:56:52;;;;;;;57.72;23.40;;;;;;;;;;5080603;28;20054;-58
2022/11/20 05:59:17;;;;;;;55.40;22.13;;;;;;;;;;5081007;28;20024;-58
2022/11/20 06:01:42;;;;;;;54.53;21.25;;;;;;;;;;5086580;28;20027;-58
2022/11/20 06:04:07;;;;;;;54.53;22.30;;;;;;;;;;5080604;28;20032;-58
2022/11/20 06:06:32;;;;;;;60.38;22.08;;;;;;;;;;5070941;28;20050;-58
2022/11/20 06:08:58;;;;;;;57.92;22.38;;;;;;;;;;5084311;28;20437;-58
2022/11/20 06:11:24;;;;;;;58.33;22.08;;;;;;;;;;5080516;28;20070;-58
2022/11/20 06:13:49;;;;;;;49.45;20.38;;;;;;;;;;5072341;28;20023;-58
2022/11/20 06:16:15;;;;;;;51.17;20.08;;;;;;;;;;5069278;28;20366;-58
2022/11/20 06:18:41;;;;;;;44.25;19.67;;;;;;;;;;5082893;28;20019;-58
2022/11/20 06:21:07;;;;;;;46.20;20.35;;;;;;;;;;5088016;28;20390;-58
2022/11/20 06:23:32;;;;;;;53.38;21.33;;;;;;;;;;5081639;28;20172;-58
2022/11/20 06:26:00;;;;;;;52.03;21.77;;;;;;;;;;5076542;28;20016;-58
2022/11/20 06:28:25;;;;;;;49.65;20.00;;;;;;;;;;5074087;28;20027;-58
2022/11/20 06:30:50;;;;;;;61.38;24.02;;;;;;;;;;5070243;28;20035;-58
2022/11/20 06:33:16;;;;;;;51.40;20.35;;;;;;;;;;5075797;28;20025;-58
2022/11/20 06:35:41;;;;;;;49.63;21.15;;;;;;;;;;5068419;28;20020;-58
2022/11/20 06:38:06;;;;;;;58.20;22.23;;;;;;;;;;5080717;28;20148;-58
2022/11/20 06:40:31;;;;;;;47.80;21.15;;;;;;;;;;5076854;28;20017;-58
2022/11/20 06:42:56;;;;;;;56.92;22.95;;;;;;;;;;5071858;28;20028;-58
2022/11/20 06:45:22;;;;;;;51.15;22.23;;;;;;;;;;5085227;28;20013;-58
2022/11/20 06:47:47;;;;;;;48.15;20.48;;;;;;;;;;5085198;28;20446;-57
2022/11/20 06:50:13;;;;;;;54.47;20.88;;;;;;;;;;5087200;28;20463;-58
2022/11/20 06:52:38;;;;;;;47.17;20.58;;;;;;;;;;5078308;28;20038;-58
2022/11/20 06:55:03;;;;;;;53.17;22.52;;;;;;;;;;5080245;28;21235;-58
2022/11/20 06:57:28;;;;;;;48.13;21.05;;;;;;;;;;5077399;28;20021;-58
2022/11/20 06:59:54;;;;;;;49.92;20.55;;;;;;;;;;5079696;28;20080;-57
2022/11/20 07:02:19;;;;;;;51.13;20.88;;;;;;;;;;5076211;28;20394;-58
2022/11/20 07:04:44;;;;;;;50.75;22.15;;;;;;;;;;5075956;28;20020;-58
2022/11/20 07:07:09;;;;;;;44.70;19.92;;;;;;;;;;5069784;28;20036;-58
2022/11/20 07:09:35;;;;;;;48.40;21.88;;;;;;;;;;5077273;28;20223;-58
2022/11/20 07:12:00;;;;;;;47.67;19.90;;;;;;;;;;5076119;28;20483;-58
2022/11/20 07:14:25;;;;;;;48.08;20.23;;;;;;;;;;5075386;28;20103;-58
2022/11/20 07:16:50;;;;;;;46.72;20.75;;;;;;;;;;5078672;28;20428;-58
2022/11/20 07:19:15;;;;;;;42.05;20.13;;;;;;;;;;5086021;28;20035;-58
2022/11/20 07:21:41;;;;;;;46.88;19.88;;;;;;;;;;5083969;28;20073;-58
2022/11/20 07:24:06;;;;;;;45.42;20.67;;;;;;;;;;5078045;28;20032;-58
2022/11/20 07:26:31;;;;;;;47.53;20.25;;;;;;;;;;5075621;28;20060;-58
2022/11/20 07:28:56;;;;;;;46.17;20.30;;;;;;;;;;5072021;28;20073;-58
2022/11/20 07:31:22;;;;;;;46.47;20.15;;;;;;;;;;5078989;28;20052;-58
2022/11/20 07:33:47;;;;;;;42.33;20.27;;;;;;;;;;5082894;28;20157;-58
2022/11/20 07:36:13;;;;;;;48.75;21.10;;;;;;;;;;5074849;28;20025;-58
2022/11/20 07:38:38;;;;;;;47.90;21.48;;;;;;;;;;5071025;28;20267;-58
2022/11/20 07:41:03;;;;;;;44.67;20.23;;;;;;;;;;5066379;28;20111;-57
2022/11/20 07:43:28;;;;;;;40.65;19.10;;;;;;;;;;5072824;28;20552;-58
2022/11/20 07:45:57;;;;;;;43.38;18.30;;;;;;;;;;5058803;28;20103;-58
2022/11/20 07:48:23;;;;;;;38.67;18.50;;;;;;;;;;5075195;28;20092;-58
2022/11/20 07:50:48;;;;;;;44.25;17.80;;;;;;;;;;5068946;28;20112;-58
2022/11/20 07:53:13;;;;;;;41.28;17.02;;;;;;;;;;5078079;28;20463;-58
2022/11/20 07:55:39;;;;;;;41.25;18.05;;;;;;;;;;5079705;28;20857;-58
2022/11/20 07:58:04;;;;;;;50.95;20.17;;;;;;;;;;5071259;28;20351;-58
2022/11/20 08:00:29;;;;;;;41.13;18.38;;;;;;;;;;5070238;28;20019;-58
2022/11/20 08:02:54;;;;;;;38.08;17.95;;;;;;;;;;5073941;28;20024;-58
2022/11/20 08:05:20;;;;;;;40.50;18.05;;;;;;;;;;5073172;28;20043;-58
2022/11/20 08:07:45;;;;;;;34.08;14.95;;;;;;;;;;5068287;28;20051;-58
2022/11/20 08:10:11;;;;;;;32.72;16.77;;;;;;;;;;5079715;28;20373;-59
2022/11/20 08:15:23;;;;;;;34.53;16.85;;;;;;;;;;5099625;28;20044;-58
2022/11/20 08:17:49;;;;;;;36.83;16.33;;;;;;;;;;5084032;28;20410;-58
2022/11/20 08:20:14;;;;;;;28.75;12.52;;;;;;;;;;5081659;28;20024;-58
2022/11/20 08:22:39;;;;;;;25.55;11.85;;;;;;;;;;5074135;28;20046;-58
2022/11/20 08:25:04;;;;;;;27.85;11.98;;;;;;;;;;5079311;28;20111;-58
2022/11/20 08:27:31;;;;;;;21.30;11.10;;;;;;;;;;5078093;28;20368;-58
2022/11/20 08:29:56;;;;;;;79.07;40.47;;;;;;;;;;5096381;28;20030;-58
2022/11/20 08:32:21;;;;;;;25.23;12.70;;;;;;;;;;5082204;28;20028;-59
2022/11/20 08:34:46;;;;;;;20.73;10.98;;;;;;;;;;5084584;28;20027;-58
2022/11/20 08:37:12;;;;;;;28.10;13.45;;;;;;;;;;5079948;28;20023;-58
2022/11/20 08:39:37;;;;;;;22.88;11.93;;;;;;;;;;5087263;28;20503;-58
2022/11/20 08:42:06;;;;;;;32.58;13.77;;;;;;;;;;5075960;28;20097;-58
2022/11/20 08:44:31;;;;;;;25.15;13.40;;;;;;;;;;5053704;28;20031;-58
2022/11/20 08:46:56;;;;;;;22.98;11.07;;;;;;;;;;5081094;28;20798;-58
2022/11/20 08:49:22;;;;;;;21.35;10.68;;;;;;;;;;5077369;28;20070;-58
2022/11/20 08:51:51;;;;;;;32.00;13.45;;;;;;;;;;5059208;28;20049;-58
2022/11/20 08:54:19;;;;;;;23.33;11.43;;;;;;;;;;5072489;28;20024;-58
2022/11/20 08:56:44;;;;;;;31.35;15.30;;;;;;;;;;5080225;28;20028;-59
2022/11/20 08:59:10;;;;;;;21.70;11.32;;;;;;;;;;5074930;28;20027;-61
2022/11/20 09:01:35;;;;;;;25.15;12.52;;;;;;;;;;5080645;28;20424;-58
2022/11/20 09:04:00;;;;;;;27.73;13.15;;;;;;;;;;5067209;28;20453;-58
2022/11/20 09:06:26;;;;;;;33.50;15.10;;;;;;;;;;5070882;28;20675;-58
2022/11/20 09:08:52;;;;;;;26.38;12.82;;;;;;;;;;5072083;28;20135;-58
2022/11/20 09:11:17;;;;;;;32.35;14.73;;;;;;;;;;5070962;28;20063;-59
2022/11/20 09:13:42;;;;;;;29.48;13.40;;;;;;;;;;5077367;28;20066;-58
2022/11/20 09:16:08;;;;;;;28.58;13.32;;;;;;;;;;5073308;28;20394;-59
2022/11/20 09:18:35;;;;;;;31.30;14.45;;;;;;;;;;5065597;28;20024;-59
2022/11/20 09:21:01;;;;;;;31.42;13.30;;;;;;;;;;5066269;28;20020;-59
2022/11/20 09:23:27;;;;;;;28.52;13.38;;;;;;;;;;5073374;28;20032;-59
2022/11/20 09:25:52;;;;;;;29.38;13.02;;;;;;;;;;5071829;28;20024;-58
2022/11/20 09:28:18;;;;;;;28.52;12.63;;;;;;;;;;5080217;28;20031;-58
2022/11/20 09:30:43;;;;;;;33.00;12.85;;;;;;;;;;5081273;28;20466;-58
2022/11/20 09:33:08;;;;;;;27.48;12.60;;;;;;;;;;5073223;28;20028;-58
2022/11/20 09:35:34;;;;;;;25.83;12.00;;;;;;;;;;5075761;28;20368;-58
2022/11/20 09:38:03;;;;;;;33.85;15.23;;;;;;;;;;5074078;28;20464;-58
2022/11/20 09:40:29;;;;;;;33.47;14.95;;;;;;;;;;5101946;27;20519;-58
2022/11/20 09:43:07;;;;;;;38.75;16.77;;;;;;;;;;5070614;28;20044;-58
2022/11/20 09:45:51;;;;;;;29.08;13.02;;;;;;;;;;5071767;28;20020;-58
2022/11/20 09:48:29;;;;;;;27.48;12.70;;;;;;;;;;5077384;28;20024;-58
2022/11/20 09:51:06;;;;;;;27.63;12.75;;;;;;;;;;5065941;28;20065;-59
2022/11/20 09:53:37;;;;;;;27.65;11.75;;;;;;;;;;5103815;27;20515;-58
2022/11/20 09:56:03;;;;;;;26.60;13.02;;;;;;;;;;5078920;28;20016;-58
2022/11/20 09:58:34;;;;;;;25.60;12.27;;;;;;;;;;5083465;28;20479;-58
2022/11/20 10:01:03;;;;;;;24.67;11.77;;;;;;;;;;5086347;28;20418;-58
2022/11/20 10:03:51;;;;;;;25.30;12.15;;;;;;;;;;5079549;28;20404;-58
2022/11/20 10:06:17;;;;;;;23.52;11.95;;;;;;;;;;5070233;28;20072;-59
2022/11/20 10:08:49;;;;;;;28.38;12.80;;;;;;;;;;5076174;28;20471;-58
2022/11/20 10:11:37;;;;;;;27.17;11.88;;;;;;;;;;5077064;28;20043;-58
2022/11/20 10:14:25;;;;;;;27.25;13.15;;;;;;;;;;5066578;28;20090;-58
2022/11/20 10:16:57;;;;;;;25.65;12.18;;;;;;;;;;5098759;27;20607;-58
2022/11/20 10:19:34;;;;;;;24.92;12.05;;;;;;;;;;5069954;28;20025;-58
2022/11/20 10:22:18;;;;;;;23.48;12.25;;;;;;;;;;5074682;28;20020;-58
2022/11/20 10:24:44;;;;;;;28.83;13.60;;;;;;;;;;5070216;28;20032;-59
2022/11/20 10:27:09;;;;;;;35.22;14.70;;;;;;;;;;5105355;27;20017;-58
2022/11/20 10:29:36;;;;;;;21.52;11.02;;;;;;;;;;5081124;28;20086;-58
2022/11/20 10:32:02;;;;;;;20.02;10.30;;;;;;;;;;5077071;28;20020;-59
2022/11/20 10:34:54;;;;;;;17.73;9.90;;;;;;;;;;5097392;27;20022;-58
2022/11/20 10:37:22;;;;;;;15.65;8.88;;;;;;;;;;5078085;28;20498;-58
2022/11/20 10:39:47;;;;;;;19.30;9.98;;;;;;;;;;5076832;28;20032;-58
2022/11/20 10:42:14;;;;;;;21.27;11.48;;;;;;;;;;5075333;28;20035;-58
2022/11/20 10:47:24;;;;;;;13.90;7.75;;;;;;;;;;5075480;28;20096;-59
2022/11/20 10:49:53;;;;;;;14.63;8.68;;;;;;;;;;5071219;28;20114;-58
2022/11/20 10:52:25;;;;;;;19.67;10.88;;;;;;;;;;5107976;27;20157;-58
2022/11/20 10:54:50;;;;;;;12.48;8.02;;;;;;;;;;5075334;28;20020;-58
2022/11/20 10:57:34;;;;;;;16.23;10.80;;;;;;;;;;5081208;28;20081;-58
2022/11/20 11:00:01;;;;;;;12.40;7.25;;;;;;;;;;5073115;28;20052;-58
2022/11/20 11:02:33;;;;;;;16.08;8.02;;;;;;;;;;5082253;28;20036;-58
2022/11/20 11:04:58;;;;;;;16.50;11.20;;;;;;;;;;5070783;28;20107;-58
2022/11/20 11:07:23;;;;;;;13.52;8.10;;;;;;;;;;5077024;28;20143;-58
2022/11/20 11:09:52;;;;;;;12.70;7.70;;;;;;;;;;5072663;28;20471;-58
2022/11/20 11:12:18;;;;;;;15.38;9.02;;;;;;;;;;5073515;28;20085;-59
2022/11/20 11:14:53;;;;;;;18.73;11.38;;;;;;;;;;5079000;28;20036;-57
2022/11/20 11:17:21;;;;;;;14.13;7.85;;;;;;;;;;5084711;28;20119;-57
2022/11/20 11:19:56;;;;;;;14.90;8.50;;;;;;;;;;5076377;28;20032;-59
2022/11/20 11:22:21;;;;;;;13.48;8.82;;;;;;;;;;5081044;28;20027;-57
2022/11/20 11:24:53;;;;;;;15.57;8.98;;;;;;;;;;5070093;28;20024;-57
2022/11/20 11:27:18;;;;;;;15.32;8.90;;;;;;;;;;5078088;28;20318;-57
2022/11/20 11:29:43;;;;;;;11.93;7.45;;;;;;;;;;5074408;28;20033;-59
2022/11/20 11:32:17;;;;;;;22.30;11.55;;;;;;;;;;5070566;28;20030;-57
2022/11/20 11:34:42;;;;;;;11.57;7.35;;;;;;;;;;5073314;28;20031;-56
2022/11/20 11:37:25;;;;;;;21.25;12.05;;;;;;;;;;5075212;28;20471;-59
2022/11/20 11:39:50;;;;;;;18.98;9.93;;;;;;;;;;5074771;28;20042;-57
2022/11/20 11:42:17;;;;;;;21.45;11.68;;;;;;;;;;5067211;28;20040;-60
2022/11/20 11:47:35;;;;;;;20.60;11.27;;;;;;;;;;5070750;28;20067;-58
2022/11/20 11:50:21;;;;;;;20.63;11.40;;;;;;;;;;5074797;28;20020;-58
2022/11/20 11:52:46;;;;;;;17.17;9.13;;;;;;;;;;5072413;28;20535;-58
2022/11/20 11:55:16;;;;;;;16.65;9.15;;;;;;;;;;5074732;28;20024;-58
2022/11/20 11:57:57;;;;;;;13.00;8.10;;;;;;;;;;5091030;28;20023;-59
2022/11/20 12:00:22;;;;;;;17.02;8.93;;;;;;;;;;5079221;28;20027;-58
2022/11/20 12:02:48;;;;;;;21.63;11.93;;;;;;;;;;5078305;28;20024;-58
2022/11/20 12:05:13;;;;;;;25.13;14.15;;;;;;;;;;5080987;28;20034;-58
2022/11/20 12:07:40;;;;;;;31.67;17.20;;;;;;;;;;5081088;28;20195;-58
2022/11/20 12:10:05;;;;;;;35.50;18.00;;;;;;;;;;5074360;28;20158;-58
2022/11/20 12:12:36;;;;;;;35.70;16.98;;;;;;;;;;5077332;28;20111;-58
2022/11/20 12:15:02;;;;;;;34.08;18.15;;;;;;;;;;5077332;28;20233;-58
2022/11/20 12:17:27;;;;;;;41.50;17.65;;;;;;;;;;5074219;28;20728;-58
2022/11/20 12:19:52;;;;;;;41.00;20.92;;;;;;;;;;5079444;28;20015;-58
2022/11/20 12:22:26;;;;;;;44.92;22.52;;;;;;;;;;5077039;28;20031;-58
2022/11/20 12:24:54;;;;;;;43.67;20.92;;;;;;;;;;5075036;28;20032;-58
2022/11/20 12:27:25;;;;;;;38.88;19.23;;;;;;;;;;5072885;28;20023;-58
2022/11/20 12:29:59;;;;;;;36.55;18.92;;;;;;;;;;5078092;28;20059;-58
2022/11/20 12:32:30;;;;;;;36.28;18.50;;;;;;;;;;5075949;28;20730;-58
2022/11/20 12:35:05;;;;;;;42.20;20.23;;;;;;;;;;5072100;28;20147;-58
2022/11/20 12:37:36;;;;;;;36.50;18.88;;;;;;;;;;5075423;28;20387;-58
2022/11/20 12:40:05;;;;;;;42.28;20.85;;;;;;;;;;5073323;28;20016;-58
2022/11/20 12:45:42;;;;;;;40.13;19.02;;;;;;;;;;5071441;28;20028;-58
2022/11/20 12:48:19;;;;;;;40.15;18.83;;;;;;;;;;5072741;28;20092;-58
2022/11/20 12:50:51;;;;;;;37.85;18.50;;;;;;;;;;5076268;28;20032;-58
2022/11/20 12:53:17;;;;;;;37.00;18.30;;;;;;;;;;5078943;28;20108;-58
2022/11/20 12:55:47;;;;;;;44.15;19.27;;;;;;;;;;5079081;28;20012;-58
2022/11/20 12:58:21;;;;;;;41.42;21.25;;;;;;;;;;5075139;28;20295;-58
2022/11/20 13:00:57;;;;;;;65.50;27.77;;;;;;;;;;5070227;28;20028;-58
2022/11/20 13:03:25;;;;;;;54.90;26.10;;;;;;;;;;5101835;27;20553;-58
2022/11/20 13:05:50;;;;;;;44.60;23.02;;;;;;;;;;5075964;28;20027;-58
2022/11/20 13:08:25;;;;;;;49.78;23.98;;;;;;;;;;5069312;28;20025;-58
2022/11/20 13:11:02;;;;;;;50.47;24.60;;;;;;;;;;5080812;28;20512;-58
2022/11/20 13:13:29;;;;;;;58.03;29.38;;;;;;;;;;5082750;28;20051;-58
2022/11/20 13:16:04;;;;;;;52.88;23.60;;;;;;;;;;5072219;28;20374;-58
2022/11/20 13:18:29;;;;;;;46.78;23.45;;;;;;;;;;5076478;28;20024;-58
2022/11/20 13:20:56;;;;;;;44.40;21.80;;;;;;;;;;5115880;27;20039;-58
2022/11/20 13:23:25;;;;;;;46.42;23.17;;;;;;;;;;5111997;27;20024;-58
2022/11/20 13:25:52;;;;;;;53.85;25.45;;;;;;;;;;5064639;28;20086;-58
2022/11/20 13:28:18;;;;;;;40.15;20.23;;;;;;;;;;5074588;28;20044;-58
2022/11/20 13:30:53;;;;;;;40.65;20.90;;;;;;;;;;5083870;28;20011;-58
2022/11/20 13:33:22;;;;;;;45.50;21.48;;;;;;;;;;5073434;28;20088;-58
2022/11/20 13:35:55;;;;;;;47.80;22.55;;;;;;;;;;5071248;28;20676;-58
2022/11/20 13:38:20;;;;;;;45.83;21.33;;;;;;;;;;5082977;28;20056;-58
2022/11/20 13:40:52;;;;;;;40.97;19.65;;;;;;;;;;5091281;28;20460;-58
2022/11/20 13:43:17;;;;;;;42.78;19.83;;;;;;;;;;5074230;28;20059;-58
2022/11/20 13:45:42;;;;;;;36.33;17.80;;;;;;;;;;5071178;28;20060;-59
2022/11/20 13:48:20;;;;;;;39.08;19.73;;;;;;;;;;5077247;28;20031;-58
2022/11/20 13:50:48;;;;;;;48.85;20.50;;;;;;;;;;5072830;28;20527;-58
2022/11/20 13:53:20;;;;;;;37.00;18.08;;;;;;;;;;5068816;28;20024;-59
2022/11/20 13:56:25;;;;;;;37.72;19.85;;;;;;;;;;5072042;28;20039;-59
2022/11/20 13:59:04;;;;;;;41.08;19.02;;;;;;;;;;4998691;28;20029;-58
2022/11/20 14:01:31;;;;;;;35.72;18.00;;;;;;;;;;4981743;28;20079;-58
2022/11/20 14:03:56;;;;;;;49.47;20.05;;;;;;;;;;5025145;28;20052;-58
2022/11/20 14:06:28;;;;;;;41.10;19.10;;;;;;;;;;5075108;28;20067;-58
2022/11/20 14:08:54;;;;;;;33.17;17.45;;;;;;;;;;5077920;28;20024;-58
2022/11/20 14:11:20;;;;;;;42.10;18.45;;;;;;;;;;5081537;28;20439;-59
2022/11/20 14:13:52;;;;;;;42.55;19.00;;;;;;;;;;5075897;28;20028;-59
2022/11/20 14:16:19;;;;;;;36.20;17.88;;;;;;;;;;5076604;28;20020;-59
2022/11/20 14:18:44;;;;;;;36.65;16.77;;;;;;;;;;5067642;28;20524;-58
2022/11/20 14:21:10;;;;;;;33.28;16.55;;;;;;;;;;5080677;28;20067;-59
2022/11/20 14:23:35;;;;;;;35.70;16.17;;;;;;;;;;5077459;28;20075;-59
2022/11/20 14:26:00;;;;;;;34.33;17.42;;;;;;;;;;5075512;28;20071;-58
2022/11/20 14:28:29;;;;;;;39.47;17.85;;;;;;;;;;5112063;27;20058;-59
2022/11/20 14:30:55;;;;;;;37.78;17.30;;;;;;;;;;5068425;28;20047;-59
2022/11/20 14:33:24;;;;;;;58.08;26.05;;;;;;;;;;5061478;28;20637;-59
2022/11/20 14:35:50;;;;;;;63.45;25.65;;;;;;;;;;5072819;28;20019;-59
2022/11/20 14:38:16;;;;;;;41.28;21.10;;;;;;;;;;5078424;28;20024;-59